createdAt,value
2018-11-23T00:02:21.480Z,60.60
2018-11-23T00:05:09.310Z,62.37
2018-11-23T00:07:57.615Z,59.03
2018-11-23T00:10:45.128Z,60.20
2018-11-23T00:13:32.684Z,62.40
2018-11-23T00:16:20.193Z,63.77
2018-11-23T00:19:07.741Z,60.80
2018-11-23T00:21:55.316Z,66.70
2018-11-23T00:24:42.839Z,61.33
2018-11-23T00:27:30.440Z,66.23
2018-11-23T00:30:19.344Z,65.10
2018-11-23T00:33:06.931Z,64.93
2018-11-23T00:35:54.452Z,64.70
2018-11-23T00:38:42.026Z,66.17
2018-11-23T00:41:29.844Z,65.93
2018-11-23T00:44:17.413Z,68.43
2018-11-23T00:47:04.953Z,63.53
2018-11-23T00:49:52.536Z,62.17
2018-11-23T00:52:40.706Z,66.77
2018-11-23T00:55:28.881Z,64.43
2018-11-23T00:58:16.417Z,65.70
2018-11-23T01:01:03.749Z,60.90
2018-11-23T01:03:43.939Z,61.57
2018-11-23T01:06:24.423Z,63.20
2018-11-23T01:09:04.886Z,63.07
2018-11-23T01:11:45.110Z,65.53
2018-11-23T01:14:26.058Z,64.20
2018-11-23T01:17:06.340Z,63.87
2018-11-23T01:19:46.967Z,60.10
2018-11-23T01:22:27.391Z,63.93
2018-11-23T01:25:08.053Z,60.77
2018-11-23T01:27:49.992Z,61.93
2018-11-23T01:30:31.519Z,61.77
2018-11-23T01:33:12.737Z,57.70
2018-11-23T01:35:52.930Z,60.63
2018-11-23T01:38:33.096Z,57.80
2018-11-23T01:41:13.328Z,56.83
2018-11-23T01:43:54.352Z,55.80
2018-11-23T01:46:34.617Z,59.60
2018-11-23T01:49:15.136Z,61.93
2018-11-23T01:51:56.036Z,62.90
2018-11-23T01:54:36.347Z,59.60
2018-11-23T01:57:17.337Z,63.20
2018-11-23T01:59:57.626Z,61.00
2018-11-23T02:02:37.935Z,63.60
2018-11-23T02:05:18.722Z,57.77
2018-11-23T02:07:59.758Z,64.43
2018-11-23T02:10:40.912Z,61.00
2018-11-23T02:13:21.231Z,63.03
2018-11-23T02:16:01.446Z,60.83
2018-11-23T02:18:42.153Z,60.63
2018-11-23T02:21:22.421Z,65.03
2018-11-23T02:24:02.708Z,58.63
2018-11-23T02:26:42.976Z,64.40
2018-11-23T02:29:23.398Z,59.67
2018-11-23T02:32:04.145Z,62.70
2018-11-23T02:34:45.066Z,62.07
2018-11-23T02:37:26.010Z,63.43
2018-11-23T02:40:06.497Z,61.07
2018-11-23T02:42:47.529Z,63.63
2018-11-23T02:45:28.289Z,60.80
2018-11-23T02:48:09.271Z,61.90
2018-11-23T02:50:37.395Z,64.60
2018-11-23T02:53:24.972Z,65.73
2018-11-23T02:56:12.549Z,64.73
2018-11-23T02:59:00.073Z,65.73
2018-11-23T03:01:47.653Z,61.13
2018-11-23T03:04:35.232Z,63.37
2018-11-23T03:07:22.855Z,61.87
2018-11-23T03:10:11.166Z,64.23
2018-11-23T03:12:58.690Z,63.33
2018-11-23T03:15:46.236Z,62.83
2018-11-23T03:18:33.798Z,60.33
2018-11-23T03:21:21.347Z,62.07
2018-11-23T03:24:08.886Z,61.80
2018-11-23T03:26:56.417Z,60.13
2018-11-23T03:29:44.021Z,62.03
2018-11-23T03:32:31.557Z,59.77
2018-11-23T03:35:19.621Z,61.80
2018-11-23T03:38:07.211Z,62.70
2018-11-23T03:40:54.743Z,63.33
2018-11-23T03:43:42.476Z,58.97
2018-11-23T03:46:29.989Z,63.70
2018-11-23T03:49:17.565Z,60.07
2018-11-23T03:52:05.155Z,60.50
2018-11-23T03:54:52.964Z,59.87
2018-11-23T03:57:40.534Z,58.10
2018-11-23T04:00:28.072Z,55.43
2018-11-23T04:03:15.615Z,61.87
2018-11-23T04:06:03.136Z,58.90
2018-11-23T04:08:50.701Z,59.77
2018-11-23T04:11:38.224Z,55.40
2018-11-23T04:14:25.753Z,60.47
2018-11-23T04:17:13.268Z,57.43
2018-11-23T04:19:41.324Z,59.73
2018-11-23T04:22:28.896Z,55.87
2018-11-23T04:25:16.429Z,58.03
2018-11-23T04:28:03.984Z,57.50
2018-11-23T04:30:51.537Z,58.97
2018-11-23T04:33:39.076Z,58.50
2018-11-23T04:36:26.629Z,60.50
2018-11-23T04:39:14.190Z,59.13
2018-11-23T04:42:01.978Z,61.43
2018-11-23T04:44:49.521Z,55.83
2018-11-23T04:47:37.460Z,61.00
2018-11-23T04:50:25.275Z,60.80
2018-11-23T04:53:12.816Z,59.07
2018-11-23T04:56:00.572Z,61.90
2018-11-23T04:58:48.144Z,62.47
2018-11-23T05:01:35.930Z,61.47
2018-11-23T05:04:23.485Z,60.77
2018-11-23T05:07:11.052Z,63.87
2018-11-23T05:09:58.652Z,57.73
2018-11-23T05:12:46.159Z,58.63
2018-11-23T05:15:33.721Z,61.90
2018-11-23T05:18:21.269Z,60.10
2018-11-23T05:21:08.844Z,61.40
2018-11-23T05:23:56.431Z,60.63
2018-11-23T05:26:44.100Z,62.10
2018-11-23T05:29:31.644Z,62.70
2018-11-23T05:32:19.287Z,62.43
2018-11-23T05:35:07.019Z,65.47
2018-11-23T05:37:54.607Z,63.47
2018-11-23T05:40:42.132Z,63.17
2018-11-23T05:43:29.714Z,66.10
2018-11-23T05:46:17.270Z,62.63
2018-11-23T05:49:05.042Z,60.27
2018-11-23T05:51:52.604Z,63.37
2018-11-23T05:54:40.200Z,65.50
2018-11-23T05:57:27.774Z,64.00
2018-11-23T06:00:17.497Z,65.13
2018-11-23T06:03:24.389Z,65.47
2018-11-23T06:06:12.180Z,66.90
2018-11-23T06:08:59.740Z,69.30
2018-11-23T06:11:47.305Z,66.70
2018-11-23T06:14:34.861Z,64.23
2018-11-23T06:17:22.387Z,64.83
2018-11-23T06:20:11.595Z,64.80
2018-11-23T06:22:59.218Z,72.17
2018-11-23T06:25:48.049Z,66.47
2018-11-23T06:28:35.581Z,69.10
2018-11-23T06:31:23.130Z,69.17
2018-11-23T06:34:10.700Z,66.67
2018-11-23T06:36:58.257Z,67.97
2018-11-23T06:39:45.809Z,67.93
2018-11-23T06:42:33.328Z,69.93
2018-11-23T06:45:21.225Z,64.43
2018-11-23T06:48:09.766Z,62.97
2018-11-23T06:50:57.513Z,65.57
2018-11-23T06:53:45.037Z,66.73
2018-11-23T06:56:32.641Z,64.70
2018-11-23T06:59:20.173Z,64.97
2018-11-23T07:02:07.701Z,61.47
2018-11-23T07:04:55.305Z,64.03
2018-11-23T07:07:42.844Z,65.00
2018-11-23T07:10:30.366Z,61.13
2018-11-23T07:13:18.149Z,65.13
2018-11-23T07:16:05.702Z,61.50
2018-11-23T07:18:53.336Z,58.90
2018-11-23T07:21:40.892Z,62.93
2018-11-23T07:24:28.705Z,66.93
2018-11-23T07:27:16.543Z,64.37
2018-11-23T07:29:57.204Z,60.20
2018-11-23T07:32:37.660Z,64.20
2018-11-23T07:35:17.878Z,63.40
2018-11-23T07:37:58.130Z,58.53
2018-11-23T07:40:40.576Z,64.30
2018-11-23T07:43:20.795Z,61.33
2018-11-23T07:46:00.988Z,63.83
2018-11-23T07:48:41.551Z,60.07
2018-11-23T07:51:22.383Z,60.10
2018-11-23T07:54:03.400Z,57.67
2018-11-23T07:56:43.953Z,57.90
2018-11-23T07:59:24.848Z,63.40
2018-11-23T08:02:06.078Z,64.30
2018-11-23T08:04:47.147Z,62.90
2018-11-23T08:07:27.712Z,60.07
2018-11-23T08:10:07.497Z,54.87
2018-11-23T08:12:49.283Z,60.33
2018-11-23T08:15:29.691Z,61.83
2018-11-23T08:18:09.989Z,58.43
2018-11-23T08:20:51.035Z,58.43
2018-11-23T08:23:31.457Z,56.77
2018-11-23T08:26:11.868Z,57.13
2018-11-23T08:28:52.819Z,57.37
2018-11-23T08:31:33.796Z,57.07
2018-11-23T08:34:14.662Z,56.17
2018-11-23T08:36:55.668Z,54.70
2018-11-23T08:39:36.649Z,56.23
2018-11-23T08:42:17.293Z,56.33
2018-11-23T08:44:58.084Z,57.93
2018-11-23T08:47:36.957Z,55.50
2018-11-23T08:53:19.722Z,58.83
2018-11-23T08:56:07.272Z,58.37
2018-11-23T08:58:55.046Z,52.37
2018-11-23T09:01:42.871Z,59.90
2018-11-23T09:04:30.389Z,61.63
2018-11-23T09:07:18.191Z,57.00
2018-11-23T09:10:06.729Z,60.27
2018-11-23T09:12:54.988Z,59.87
2018-11-23T09:15:42.543Z,57.43
2018-11-23T09:18:30.417Z,55.60
2018-11-23T09:21:17.942Z,56.70
2018-11-23T09:24:05.697Z,57.67
2018-11-23T09:26:53.235Z,58.77
2018-11-23T09:29:40.784Z,52.97
2018-11-23T09:32:28.601Z,54.40
2018-11-23T09:35:16.191Z,56.83
2018-11-23T09:38:03.768Z,54.50
2018-11-23T09:40:51.338Z,55.83
2018-11-23T09:43:38.915Z,58.43
2018-11-23T09:46:26.439Z,55.77
2018-11-23T09:49:14.001Z,57.90
2018-11-23T09:52:01.566Z,56.33
2018-11-23T09:54:49.147Z,54.87
2018-11-23T09:57:36.789Z,54.43
2018-11-23T10:00:43.544Z,56.03
2018-11-23T10:03:31.649Z,51.57
2018-11-23T10:06:19.138Z,51.63
2018-11-23T10:08:47.436Z,52.83
2018-11-23T10:11:34.974Z,56.70
2018-11-23T10:14:22.539Z,55.27
2018-11-23T10:17:10.091Z,53.53
2018-11-23T10:19:38.180Z,50.90
2018-11-23T10:22:25.803Z,55.90
2018-11-23T10:25:14.599Z,51.67
2018-11-23T10:28:02.122Z,55.30
2018-11-23T10:30:49.773Z,55.83
2018-11-23T10:33:30.227Z,50.23
2018-11-23T10:36:10.422Z,50.37
2018-11-23T10:38:50.674Z,51.60
2018-11-23T10:41:30.958Z,54.30
2018-11-23T10:44:11.537Z,52.90
2018-11-23T10:46:52.103Z,51.97
2018-11-23T10:49:32.550Z,54.03
2018-11-23T10:52:13.046Z,57.47
2018-11-23T10:54:53.184Z,54.00
2018-11-23T10:57:33.754Z,57.43
2018-11-23T11:00:33.847Z,57.33
2018-11-23T11:03:34.035Z,54.80
2018-11-23T11:06:33.632Z,52.10
2018-11-23T11:09:13.858Z,47.90
2018-11-23T11:11:54.566Z,52.33
2018-11-23T11:17:47.608Z,53.33
2018-11-23T11:20:28.062Z,55.27
2018-11-23T11:23:08.544Z,54.80
2018-11-23T11:25:49.033Z,51.17
2018-11-23T11:28:29.244Z,50.23
2018-11-23T11:31:09.596Z,52.50
2018-11-23T11:33:50.371Z,50.87
2018-11-23T11:36:18.492Z,53.33
2018-11-23T11:39:25.504Z,52.43
2018-11-23T11:42:13.060Z,48.57
2018-11-23T11:45:00.583Z,51.57
2018-11-23T11:47:48.524Z,53.43
2018-11-23T11:50:36.102Z,50.33
2018-11-23T11:53:23.624Z,53.43
2018-11-23T11:56:11.232Z,55.43
2018-11-23T11:58:59.036Z,52.80
2018-11-23T12:01:46.689Z,51.83
2018-11-23T12:04:34.246Z,51.93
2018-11-23T12:07:22.056Z,55.97
2018-11-23T12:10:29.037Z,53.73
2018-11-23T12:13:16.892Z,51.93
2018-11-23T12:16:04.444Z,46.97
2018-11-23T12:18:52.052Z,51.47
2018-11-23T12:21:39.609Z,54.37
2018-11-23T12:24:27.174Z,52.63
2018-11-23T12:27:14.740Z,54.80
2018-11-23T12:30:02.487Z,55.67
2018-11-23T12:32:51.001Z,56.43
2018-11-23T12:35:38.553Z,59.33
2018-11-23T12:38:26.097Z,56.97
2018-11-23T12:47:01.188Z,56.13
2018-11-23T12:49:49.002Z,62.37
2018-11-23T12:52:36.596Z,57.97
2018-11-23T12:55:24.222Z,59.33
2018-11-23T12:58:11.825Z,59.17
2018-11-23T13:00:59.376Z,65.83
2018-11-23T13:03:46.929Z,60.43
2018-11-23T13:06:34.929Z,62.03
2018-11-23T13:09:22.740Z,55.63
2018-11-23T13:12:10.524Z,59.30
2018-11-23T13:14:58.095Z,60.17
2018-11-23T13:17:45.626Z,58.87
2018-11-23T13:20:33.330Z,59.17
2018-11-23T13:23:20.812Z,58.60
2018-11-23T13:26:08.357Z,60.93
2018-11-23T13:28:55.898Z,55.90
2018-11-23T13:31:43.490Z,55.37
2018-11-23T13:34:31.018Z,54.70
2018-11-23T13:37:19.043Z,55.53
2018-11-23T13:40:07.445Z,57.87
2018-11-23T13:42:56.138Z,57.13
2018-11-23T13:45:43.716Z,60.83
2018-11-23T13:48:31.296Z,56.53
2018-11-23T13:51:18.834Z,61.13
2018-11-23T13:54:06.352Z,58.80
2018-11-23T13:56:53.904Z,63.67
2018-11-23T13:59:44.023Z,59.27
2018-11-23T14:02:31.793Z,59.27
2018-11-23T14:05:20.900Z,60.50
2018-11-23T14:08:08.381Z,60.07
2018-11-23T14:10:56.395Z,61.33
2018-11-23T14:13:44.171Z,60.90
2018-11-23T14:16:31.703Z,59.67
2018-11-23T14:19:19.483Z,57.77
2018-11-23T14:22:07.162Z,61.20
2018-11-23T14:24:54.711Z,62.53
2018-11-23T14:27:42.822Z,59.63
2018-11-23T14:33:25.950Z,67.57
2018-11-23T14:36:13.525Z,62.43
2018-11-23T14:39:01.420Z,56.83
2018-11-23T14:41:49.084Z,61.00
2018-11-23T14:44:36.747Z,64.53
2018-11-23T14:47:24.527Z,71.17
2018-11-23T14:50:14.021Z,59.50
2018-11-23T14:52:45.797Z,65.67
2018-11-23T14:55:33.590Z,59.70
2018-11-23T14:58:21.439Z,67.47
2018-11-23T15:01:09.004Z,63.83
2018-11-23T15:03:56.879Z,65.03
2018-11-23T15:06:44.531Z,66.70
2018-11-23T15:09:32.115Z,66.30
2018-11-23T15:12:22.445Z,66.27
2018-11-23T15:15:12.241Z,63.83
2018-11-23T15:18:00.328Z,61.20
2018-11-23T15:20:47.897Z,63.50
2018-11-23T15:23:35.485Z,65.90
2018-11-23T15:26:23.213Z,62.43
2018-11-23T15:29:10.823Z,64.97
2018-11-23T15:32:17.603Z,63.27
2018-11-23T15:35:05.339Z,61.47
2018-11-23T15:37:52.928Z,64.90
2018-11-23T15:40:40.810Z,63.97
2018-11-23T15:43:28.334Z,61.73
2018-11-23T15:46:15.908Z,64.13
2018-11-23T15:49:03.487Z,71.93
2018-11-23T15:51:51.075Z,63.27
2018-11-23T15:54:38.713Z,64.80
2018-11-23T15:57:26.375Z,67.80
2018-11-23T16:00:15.301Z,63.43
2018-11-23T16:03:02.906Z,66.73
2018-11-23T16:05:50.467Z,71.77
2018-11-23T16:08:38.022Z,73.20
2018-11-23T16:11:25.645Z,69.93
2018-11-23T16:14:13.425Z,68.80
2018-11-23T16:17:20.252Z,67.10
2018-11-23T16:20:13.607Z,74.33
2018-11-23T16:23:02.759Z,66.23
2018-11-23T16:25:51.125Z,71.10
2018-11-23T16:28:41.513Z,69.37
2018-11-23T16:31:29.184Z,68.63
2018-11-23T16:34:16.839Z,71.20
2018-11-23T16:36:45.451Z,71.57
2018-11-23T16:39:33.056Z,68.87
2018-11-23T16:42:20.774Z,69.63
2018-11-23T16:45:09.662Z,75.90
2018-11-23T16:47:58.190Z,72.30
2018-11-23T16:50:45.908Z,72.90
2018-11-23T16:53:33.718Z,74.97
2018-11-23T16:56:21.300Z,75.13
2018-11-23T16:59:08.843Z,80.67
2018-11-23T17:01:56.727Z,75.73
2018-11-23T17:04:44.517Z,79.43
2018-11-23T17:07:32.476Z,77.47
2018-11-23T17:10:20.392Z,84.63
2018-11-23T17:13:08.063Z,79.40
2018-11-23T17:15:55.680Z,76.50
2018-11-23T17:18:43.427Z,80.77
2018-11-23T17:21:31.047Z,77.53
2018-11-23T17:24:18.722Z,79.77
2018-11-23T17:27:06.458Z,79.60
2018-11-23T17:29:53.879Z,79.33
2018-11-23T17:32:41.587Z,74.70
2018-11-23T17:35:29.462Z,74.63
2018-11-23T17:38:17.311Z,70.93
2018-11-23T17:41:05.135Z,72.03
2018-11-23T17:43:52.807Z,69.87
2018-11-23T17:46:40.358Z,68.47
2018-11-23T17:49:28.117Z,68.27
2018-11-23T17:52:15.782Z,67.47
2018-11-23T17:55:03.385Z,68.23
2018-11-23T17:57:51.688Z,68.53
2018-11-23T18:00:39.734Z,64.90
2018-11-23T18:03:27.042Z,63.20
2018-11-23T18:06:14.579Z,58.97
2018-11-23T18:09:02.844Z,65.53
2018-11-23T18:11:50.480Z,61.37
2018-11-23T18:14:38.125Z,59.93
2018-11-23T18:17:25.691Z,66.50
2018-11-23T18:20:32.542Z,63.10
2018-11-23T18:23:01.269Z,57.57
2018-11-23T18:26:08.293Z,60.67
2018-11-23T18:28:56.086Z,60.40
2018-11-23T18:31:43.643Z,59.77
2018-11-23T18:34:24.189Z,58.20
2018-11-23T18:37:04.652Z,59.83
2018-11-23T18:39:45.352Z,54.00
2018-11-23T18:45:20.203Z,59.03
2018-11-23T18:51:14.759Z,63.33
2018-11-23T18:54:02.281Z,62.10
2018-11-23T18:56:49.831Z,62.63
2018-11-23T18:59:37.393Z,63.53
2018-11-23T19:02:24.949Z,61.80
2018-11-23T19:05:31.941Z,64.80
2018-11-23T19:08:19.523Z,60.17
2018-11-23T19:11:07.102Z,68.30
2018-11-23T19:13:55.131Z,65.07
2018-11-23T19:16:42.692Z,61.30
2018-11-23T19:19:30.261Z,61.90
2018-11-23T19:22:17.806Z,66.23
2018-11-23T19:25:05.610Z,57.80
2018-11-23T19:27:53.177Z,61.27
2018-11-23T19:30:40.781Z,62.77
2018-11-23T19:33:28.347Z,63.13
2018-11-23T19:36:15.886Z,65.17
2018-11-23T19:39:03.898Z,62.30
2018-11-23T19:41:32.045Z,62.40
2018-11-23T19:44:19.821Z,58.10
2018-11-23T19:47:07.375Z,68.47
2018-11-23T19:49:55.150Z,63.93
2018-11-23T19:52:42.692Z,65.17
2018-11-23T19:55:30.390Z,56.20
2018-11-23T19:58:18.181Z,63.73
2018-11-23T20:01:05.955Z,63.93
2018-11-23T20:03:53.503Z,62.53
2018-11-23T20:06:42.827Z,57.67
2018-11-23T20:09:28.824Z,60.63
2018-11-23T20:12:16.511Z,60.00
2018-11-23T20:15:04.227Z,61.40
2018-11-23T20:17:52.058Z,66.77
2018-11-23T20:20:39.614Z,56.90
2018-11-23T20:23:11.252Z,61.00
2018-11-23T20:25:58.785Z,64.13
2018-11-23T20:28:46.595Z,64.77
2018-11-23T20:31:34.184Z,61.33
2018-11-23T20:34:21.745Z,61.17
2018-11-23T20:37:09.296Z,56.40
2018-11-23T20:39:37.401Z,58.00
2018-11-23T20:42:24.967Z,62.17
2018-11-23T20:45:12.846Z,59.67
2018-11-23T20:48:00.390Z,55.97
2018-11-23T20:50:47.993Z,57.87
2018-11-23T20:53:35.541Z,61.07
2018-11-23T20:56:23.114Z,64.30
2018-11-23T20:59:10.864Z,59.73
2018-11-23T21:01:58.403Z,60.93
2018-11-23T21:04:45.917Z,59.20
2018-11-23T21:07:33.532Z,53.47
2018-11-23T21:10:21.744Z,59.53
2018-11-23T21:13:09.275Z,57.40
2018-11-23T21:15:56.824Z,61.47
2018-11-23T21:18:44.381Z,54.67
2018-11-23T21:24:24.977Z,57.60
2018-11-23T21:27:12.492Z,55.33
2018-11-23T21:30:00.040Z,54.50
2018-11-23T21:32:47.830Z,58.47
2018-11-23T21:35:35.357Z,56.93
2018-11-23T21:38:22.912Z,55.97
2018-11-23T21:41:10.832Z,54.57
2018-11-23T21:43:58.418Z,53.77
2018-11-23T21:46:45.931Z,54.37
2018-11-23T21:49:33.463Z,58.10
2018-11-23T21:52:21.094Z,54.33
2018-11-23T21:55:09.619Z,50.80
2018-11-23T21:57:37.654Z,54.30
2018-11-23T22:00:25.200Z,50.13
2018-11-23T22:03:12.765Z,51.33
2018-11-23T22:05:40.828Z,56.27
2018-11-23T22:08:28.346Z,53.23
2018-11-23T22:11:15.936Z,51.57
2018-11-23T22:14:03.485Z,51.60
2018-11-23T22:16:51.096Z,52.03
2018-11-23T22:19:38.682Z,48.53
2018-11-23T22:22:26.213Z,48.10
2018-11-23T22:25:14.225Z,42.33
2018-11-23T22:28:02.023Z,48.57
2018-11-23T22:30:49.567Z,46.40
2018-11-23T22:33:37.264Z,49.77
2018-11-23T22:36:25.008Z,42.30
2018-11-23T22:39:12.560Z,45.60
2018-11-23T22:42:00.196Z,45.07
2018-11-23T22:44:47.800Z,44.10
2018-11-23T22:47:35.459Z,40.33
2018-11-23T22:50:03.651Z,40.80
2018-11-23T22:52:51.180Z,39.77
2018-11-23T22:55:38.718Z,40.40
2018-11-23T22:58:26.468Z,45.33
2018-11-23T23:01:13.996Z,47.80
2018-11-23T23:04:01.573Z,46.07
2018-11-23T23:06:49.360Z,47.17
2018-11-23T23:09:37.164Z,45.80
2018-11-23T23:12:24.680Z,44.20
2018-11-23T23:15:12.269Z,47.07
2018-11-23T23:17:59.878Z,43.83
2018-11-23T23:20:47.402Z,44.97
2018-11-23T23:23:35.187Z,47.90
2018-11-23T23:26:22.974Z,46.30
2018-11-23T23:29:10.484Z,46.37
2018-11-23T23:31:58.065Z,44.87
2018-11-23T23:34:45.621Z,48.93
2018-11-23T23:37:33.135Z,49.17
2018-11-23T23:40:20.700Z,46.60
2018-11-23T23:43:08.472Z,46.90
2018-11-23T23:45:56.061Z,46.10
2018-11-23T23:48:43.625Z,52.70
2018-11-23T23:51:31.565Z,46.57
2018-11-23T23:54:19.096Z,48.87
2018-11-23T23:57:06.632Z,45.53
2018-11-23T23:59:54.405Z,49.17
